sensor_id;sensor_type;location;lat;lon;timestamp;pressure;altitude;pressure_sealevel;temperature;humidity
26865;BME280;40618;51.166;10.322;2022-08-19T00:00:58;97025.59;;;19.79;64.86
26865;BME280;40618;51.166;10.322;2022-08-19T00:03:36;97027.63;;;19.75;64.81
26865;BME280;40618;51.166;10.322;2022-08-19T00:06:15;97017.44;;;19.71;65.12
26865;BME280;40618;51.166;10.322;2022-08-19T00:08:57;97020.81;;;19.73;64.87
26865;BME280;40618;51.166;10.322;2022-08-19T00:11:38;97021.63;;;19.73;64.93
26865;BME280;40618;51.166;10.322;2022-08-19T00:14:18;97026.78;;;19.75;65.06
26865;BME280;40618;51.166;10.322;2022-08-19T00:16:57;97017.25;;;19.74;65.30
26865;BME280;40618;51.166;10.322;2022-08-19T00:19:36;97019.13;;;19.72;65.10
26865;BME280;40618;51.166;10.322;2022-08-19T00:22:15;97018.50;;;19.68;65.16
26865;BME280;40618;51.166;10.322;2022-08-19T00:24:55;97017.91;;;19.65;65.37
26865;BME280;40618;51.166;10.322;2022-08-19T00:27:39;97018.84;;;19.64;65.57
26865;BME280;40618;51.166;10.322;2022-08-19T00:30:17;97013.84;;;19.60;65.18
26865;BME280;40618;51.166;10.322;2022-08-19T00:32:56;97016.22;;;19.64;65.28
26865;BME280;40618;51.166;10.322;2022-08-19T00:35:35;97011.72;;;19.66;65.23
26865;BME280;40618;51.166;10.322;2022-08-19T00:38:15;97002.88;;;19.67;65.62
26865;BME280;40618;51.166;10.322;2022-08-19T00:41:16;96997.41;;;19.70;65.41
26865;BME280;40618;51.166;10.322;2022-08-19T00:44:04;97004.00;;;19.75;65.39
26865;BME280;40618;51.166;10.322;2022-08-19T00:46:46;96993.38;;;19.77;65.41
26865;BME280;40618;51.166;10.322;2022-08-19T00:49:37;96990.84;;;19.75;65.45
26865;BME280;40618;51.166;10.322;2022-08-19T00:52:32;96995.88;;;19.78;65.76
26865;BME280;40618;51.166;10.322;2022-08-19T00:55:25;96988.00;;;19.78;65.60
26865;BME280;40618;51.166;10.322;2022-08-19T00:58:10;96999.25;;;19.81;65.75
26865;BME280;40618;51.166;10.322;2022-08-19T01:00:52;96990.53;;;19.80;65.79
26865;BME280;40618;51.166;10.322;2022-08-19T01:03:30;96994.72;;;19.83;65.90
26865;BME280;40618;51.166;10.322;2022-08-19T01:06:28;96983.97;;;19.86;66.00
26865;BME280;40618;51.166;10.322;2022-08-19T01:09:09;96985.78;;;19.85;65.67
26865;BME280;40618;51.166;10.322;2022-08-19T01:11:47;96985.78;;;19.85;65.91
26865;BME280;40618;51.166;10.322;2022-08-19T01:14:25;96980.63;;;19.84;66.10
26865;BME280;40618;51.166;10.322;2022-08-19T01:17:04;96989.34;;;19.84;65.89
26865;BME280;40618;51.166;10.322;2022-08-19T01:19:45;96991.97;;;19.84;65.94
26865;BME280;40618;51.166;10.322;2022-08-19T01:22:43;96999.97;;;19.83;66.21
26865;BME280;40618;51.166;10.322;2022-08-19T01:25:30;96996.28;;;19.85;66.09
26865;BME280;40618;51.166;10.322;2022-08-19T01:28:19;96993.66;;;19.85;66.39
26865;BME280;40618;51.166;10.322;2022-08-19T01:31:19;96988.41;;;19.85;66.24
26865;BME280;40618;51.166;10.322;2022-08-19T01:34:04;96988.41;;;19.85;66.16
26865;BME280;40618;51.166;10.322;2022-08-19T01:36:45;96983.03;;;19.87;66.35
26865;BME280;40618;51.166;10.322;2022-08-19T01:39:24;96987.34;;;19.88;66.49
26865;BME280;40618;51.166;10.322;2022-08-19T01:42:03;96986.28;;;19.90;66.53
26865;BME280;40618;51.166;10.322;2022-08-19T01:44:44;96970.50;;;19.90;66.58
26865;BME280;40618;51.166;10.322;2022-08-19T01:47:22;96968.72;;;19.91;66.42
26865;BME280;40618;51.166;10.322;2022-08-19T01:50:01;96973.25;;;19.89;66.47
26865;BME280;40618;51.166;10.322;2022-08-19T01:52:42;96977.41;;;19.80;66.44
26865;BME280;40618;51.166;10.322;2022-08-19T01:55:21;96974.47;;;19.72;66.69
26865;BME280;40618;51.166;10.322;2022-08-19T01:58:02;96984.97;;;19.72;66.91
26865;BME280;40618;51.166;10.322;2022-08-19T02:00:43;96982.25;;;19.73;66.87
26865;BME280;40618;51.166;10.322;2022-08-19T02:03:22;96973.78;;;19.70;67.12
26865;BME280;40618;51.166;10.322;2022-08-19T02:06:02;96971.22;;;19.68;67.23
26865;BME280;40618;51.166;10.322;2022-08-19T02:08:42;96972.78;;;19.71;67.39
26865;BME280;40618;51.166;10.322;2022-08-19T02:11:34;96962.16;;;19.72;67.25
26865;BME280;40618;51.166;10.322;2022-08-19T02:14:13;96969.22;;;19.72;67.18
26865;BME280;40618;51.166;10.322;2022-08-19T02:16:51;96966.09;;;19.67;67.40
26865;BME280;40618;51.166;10.322;2022-08-19T02:19:29;96959.28;;;19.64;67.66
26865;BME280;40618;51.166;10.322;2022-08-19T02:22:09;96953.19;;;19.64;67.78
26865;BME280;40618;51.166;10.322;2022-08-19T02:24:47;96954.16;;;19.62;67.39
26865;BME280;40618;51.166;10.322;2022-08-19T02:27:26;96949.97;;;19.60;67.78
26865;BME280;40618;51.166;10.322;2022-08-19T02:30:06;96957.94;;;19.58;68.02
26865;BME280;40618;51.166;10.322;2022-08-19T02:32:51;96951.38;;;19.53;67.57
26865;BME280;40618;51.166;10.322;2022-08-19T02:35:30;96958.44;;;19.52;67.82
26865;BME280;40618;51.166;10.322;2022-08-19T02:38:09;96963.44;;;19.55;67.87
26865;BME280;40618;51.166;10.322;2022-08-19T02:41:05;96966.19;;;19.54;68.03
26865;BME280;40618;51.166;10.322;2022-08-19T02:43:49;96966.19;;;19.54;68.04
26865;BME280;40618;51.166;10.322;2022-08-19T02:46:47;96962.13;;;19.50;68.29
26865;BME280;40618;51.166;10.322;2022-08-19T02:49:28;96956.13;;;19.48;68.37
26865;BME280;40618;51.166;10.322;2022-08-19T02:52:11;96957.09;;;19.47;68.44
26865;BME280;40618;51.166;10.322;2022-08-19T02:54:49;96962.44;;;19.45;68.24
26865;BME280;40618;51.166;10.322;2022-08-19T02:57:27;96964.78;;;19.37;68.16
26865;BME280;40618;51.166;10.322;2022-08-19T03:00:09;96977.91;;;19.37;68.51
26865;BME280;40618;51.166;10.322;2022-08-19T03:02:50;96977.91;;;19.37;68.60
26865;BME280;40618;51.166;10.322;2022-08-19T03:05:28;96980.53;;;19.37;68.61
26865;BME280;40618;51.166;10.322;2022-08-19T03:08:27;96974.06;;;19.30;68.86
26865;BME280;40618;51.166;10.322;2022-08-19T03:11:05;96979.31;;;19.30;68.94
26865;BME280;40618;51.166;10.322;2022-08-19T03:13:50;96985.53;;;19.28;69.05
26865;BME280;40618;51.166;10.322;2022-08-19T03:16:30;96985.53;;;19.28;68.69
26865;BME280;40618;51.166;10.322;2022-08-19T03:19:10;96990.06;;;19.26;69.06
26865;BME280;40618;51.166;10.322;2022-08-19T03:21:49;96998.06;;;19.25;68.88
26865;BME280;40618;51.166;10.322;2022-08-19T03:24:28;96990.59;;;19.19;68.72
26865;BME280;40618;51.166;10.322;2022-08-19T03:27:07;96989.78;;;19.18;68.89
26865;BME280;40618;51.166;10.322;2022-08-19T03:29:45;96986.41;;;19.16;68.91
26865;BME280;40618;51.166;10.322;2022-08-19T03:32:25;96989.72;;;19.07;68.91
26865;BME280;40618;51.166;10.322;2022-08-19T03:35:08;96989.09;;;19.03;69.24
26865;BME280;40618;51.166;10.322;2022-08-19T03:37:46;96991.59;;;19.05;69.23
26865;BME280;40618;51.166;10.322;2022-08-19T03:40:25;96989.09;;;19.03;69.49
26865;BME280;40618;51.166;10.322;2022-08-19T03:43:03;96988.97;;;19.05;69.30
26865;BME280;40618;51.166;10.322;2022-08-19T03:45:43;96987.41;;;19.02;69.14
26865;BME280;40618;51.166;10.322;2022-08-19T03:48:21;96989.63;;;18.96;69.35
26865;BME280;40618;51.166;10.322;2022-08-19T03:50:59;96991.44;;;18.95;69.06
26865;BME280;40618;51.166;10.322;2022-08-19T03:53:38;96990.59;;;18.94;69.33
26865;BME280;40618;51.166;10.322;2022-08-19T03:56:17;96989.88;;;18.92;69.30
26865;BME280;40618;51.166;10.322;2022-08-19T03:58:57;96996.06;;;18.91;69.15
26865;BME280;40618;51.166;10.322;2022-08-19T04:01:36;96975.59;;;18.84;69.30
26865;BME280;40618;51.166;10.322;2022-08-19T04:04:15;96993.00;;;18.85;69.27
26865;BME280;40618;51.166;10.322;2022-08-19T04:06:56;97006.78;;;18.88;69.39
26865;BME280;40618;51.166;10.322;2022-08-19T04:09:35;96997.03;;;18.90;69.11
26865;BME280;40618;51.166;10.322;2022-08-19T04:12:13;97003.72;;;18.82;69.19
26865;BME280;40618;51.166;10.322;2022-08-19T04:14:52;97013.16;;;18.84;69.24
26865;BME280;40618;51.166;10.322;2022-08-19T04:17:30;97010.53;;;18.84;69.26
26865;BME280;40618;51.166;10.322;2022-08-19T04:20:09;97007.19;;;18.82;69.02
26865;BME280;40618;51.166;10.322;2022-08-19T04:22:47;97002.66;;;18.84;68.87
26865;BME280;40618;51.166;10.322;2022-08-19T04:25:25;97007.78;;;18.86;68.84
26865;BME280;40618;51.166;10.322;2022-08-19T04:28:03;97000.84;;;18.85;68.90
26865;BME280;40618;51.166;10.322;2022-08-19T04:30:45;97000.38;;;18.80;68.71
26865;BME280;40618;51.166;10.322;2022-08-19T04:33:25;97003.81;;;18.80;68.43
26865;BME280;40618;51.166;10.322;2022-08-19T04:36:06;97011.69;;;18.80;68.74
26865;BME280;40618;51.166;10.322;2022-08-19T04:38:44;97006.44;;;18.80;68.68
26865;BME280;40618;51.166;10.322;2022-08-19T04:41:23;97016.81;;;18.82;68.49
26865;BME280;40618;51.166;10.322;2022-08-19T04:44:20;97021.03;;;18.84;68.29
26865;BME280;40618;51.166;10.322;2022-08-19T04:46:59;97014.53;;;18.77;68.42
26865;BME280;40618;51.166;10.322;2022-08-19T04:49:47;97009.94;;;18.68;68.16
26865;BME280;40618;51.166;10.322;2022-08-19T04:52:26;97003.84;;;18.67;68.53
26865;BME280;40618;51.166;10.322;2022-08-19T04:55:04;97012.03;;;18.63;68.55
26865;BME280;40618;51.166;10.322;2022-08-19T04:57:43;97021.06;;;18.58;68.41
26865;BME280;40618;51.166;10.322;2022-08-19T05:00:22;97020.44;;;18.55;68.46
26865;BME280;40618;51.166;10.322;2022-08-19T05:03:01;97023.88;;;18.42;68.40
26865;BME280;40618;51.166;10.322;2022-08-19T05:05:44;97018.34;;;18.34;68.74
26865;BME280;40618;51.166;10.322;2022-08-19T05:08:25;97017.53;;;18.21;68.87
26865;BME280;40618;51.166;10.322;2022-08-19T05:11:15;97013.53;;;18.28;69.11
26865;BME280;40618;51.166;10.322;2022-08-19T05:14:01;97017.50;;;18.34;68.92
26865;BME280;40618;51.166;10.322;2022-08-19T05:16:40;97011.34;;;18.35;69.07
26865;BME280;40618;51.166;10.322;2022-08-19T05:19:18;97015.63;;;18.36;69.05
26865;BME280;40618;51.166;10.322;2022-08-19T05:22:15;97004.81;;;18.40;68.85
26865;BME280;40618;51.166;10.322;2022-08-19T05:25:15;97005.13;;;18.49;69.32
26865;BME280;40618;51.166;10.322;2022-08-19T05:27:56;97015.84;;;18.46;69.13
26865;BME280;40618;51.166;10.322;2022-08-19T05:30:34;97026.09;;;18.49;68.89
26865;BME280;40618;51.166;10.322;2022-08-19T05:33:23;97013.81;;;18.49;69.13
26865;BME280;40618;51.166;10.322;2022-08-19T05:36:02;97021.19;;;18.44;69.11
26865;BME280;40618;51.166;10.322;2022-08-19T05:38:41;97022.94;;;18.43;68.96
26865;BME280;40618;51.166;10.322;2022-08-19T05:41:21;97023.69;;;18.46;68.77
26865;BME280;40618;51.166;10.322;2022-08-19T05:44:07;97014.16;;;18.44;68.77
26865;BME280;40618;51.166;10.322;2022-08-19T05:46:47;97018.34;;;18.47;69.05
26865;BME280;40618;51.166;10.322;2022-08-19T05:49:26;97016.25;;;18.52;68.60
26865;BME280;40618;51.166;10.322;2022-08-19T05:52:10;97014.34;;;18.54;68.59
26865;BME280;40618;51.166;10.322;2022-08-19T05:54:54;97018.22;;;18.61;68.70
26865;BME280;40618;51.166;10.322;2022-08-19T05:57:33;97022.81;;;18.71;68.47
26865;BME280;40618;51.166;10.322;2022-08-19T06:00:12;97030.28;;;18.77;68.49
26865;BME280;40618;51.166;10.322;2022-08-19T06:02:51;97034.47;;;18.80;68.19
26865;BME280;40618;51.166;10.322;2022-08-19T06:05:30;97037.28;;;18.76;68.14
26865;BME280;40618;51.166;10.322;2022-08-19T06:08:22;97046.13;;;18.75;68.02
26865;BME280;40618;51.166;10.322;2022-08-19T06:13:53;97052.31;;;18.74;67.84
26865;BME280;40618;51.166;10.322;2022-08-19T06:16:38;97051.25;;;18.77;67.84
26865;BME280;40618;51.166;10.322;2022-08-19T06:19:20;97038.84;;;18.79;67.95
26865;BME280;40618;51.166;10.322;2022-08-19T06:22:00;97045.44;;;18.85;67.68
26865;BME280;40618;51.166;10.322;2022-08-19T06:24:38;97042.56;;;18.89;67.62
26865;BME280;40618;51.166;10.322;2022-08-19T06:27:16;97051.13;;;18.91;67.75
26865;BME280;40618;51.166;10.322;2022-08-19T06:29:54;97062.03;;;18.98;67.68
26865;BME280;40618;51.166;10.322;2022-08-19T06:32:32;97063.38;;;19.04;67.68
26865;BME280;40618;51.166;10.322;2022-08-19T06:35:11;97058.88;;;19.06;67.52
26865;BME280;40618;51.166;10.322;2022-08-19T06:37:51;97055.09;;;19.10;67.58
26865;BME280;40618;51.166;10.322;2022-08-19T06:40:31;97063.59;;;19.14;67.37
26865;BME280;40618;51.166;10.322;2022-08-19T06:43:09;97066.94;;;19.16;67.14
26865;BME280;40618;51.166;10.322;2022-08-19T06:45:47;97076.38;;;19.18;67.33
26865;BME280;40618;51.166;10.322;2022-08-19T06:48:30;97090.22;;;19.20;67.28
26865;BME280;40618;51.166;10.322;2022-08-19T06:51:15;97091.06;;;19.21;67.12
26865;BME280;40618;51.166;10.322;2022-08-19T06:53:56;97092.66;;;19.23;66.49
26865;BME280;40618;51.166;10.322;2022-08-19T06:56:34;97110.06;;;19.24;66.45
26865;BME280;40618;51.166;10.322;2022-08-19T06:59:18;97110.69;;;19.28;66.31
26865;BME280;40618;51.166;10.322;2022-08-19T07:02:00;97118.44;;;19.30;66.35
26865;BME280;40618;51.166;10.322;2022-08-19T07:04:43;97112.88;;;19.34;66.14
26865;BME280;40618;51.166;10.322;2022-08-19T07:07:22;97115.50;;;19.34;65.83
26865;BME280;40618;51.166;10.322;2022-08-19T07:10:02;97109.19;;;19.37;65.83
26865;BME280;40618;51.166;10.322;2022-08-19T07:12:44;97111.38;;;19.43;65.39
26865;BME280;40618;51.166;10.322;2022-08-19T07:15:22;97118.31;;;19.44;65.25
26865;BME280;40618;51.166;10.322;2022-08-19T07:18:00;97117.03;;;19.50;65.06
26865;BME280;40618;51.166;10.322;2022-08-19T07:20:40;97109.03;;;19.51;64.85
26865;BME280;40618;51.166;10.322;2022-08-19T07:23:18;97114.06;;;19.54;64.93
26865;BME280;40618;51.166;10.322;2022-08-19T07:26:13;97115.31;;;19.61;64.67
26865;BME280;40618;51.166;10.322;2022-08-19T07:28:54;97112.47;;;19.65;64.16
26865;BME280;40618;51.166;10.322;2022-08-19T07:31:33;97116.03;;;19.64;63.88
26865;BME280;40618;51.166;10.322;2022-08-19T07:34:13;97114.03;;;19.67;63.98
26865;BME280;40618;51.166;10.322;2022-08-19T07:36:53;97117.50;;;19.68;63.96
26865;BME280;40618;51.166;10.322;2022-08-19T07:39:34;97125.38;;;19.68;64.09
26865;BME280;40618;51.166;10.322;2022-08-19T07:42:13;97130.75;;;19.66;63.86
26865;BME280;40618;51.166;10.322;2022-08-19T07:44:51;97123.09;;;19.63;63.51
26865;BME280;40618;51.166;10.322;2022-08-19T07:47:30;97122.47;;;19.59;63.52
26865;BME280;40618;51.166;10.322;2022-08-19T07:50:28;97129.41;;;19.60;63.39
26865;BME280;40618;51.166;10.322;2022-08-19T07:53:06;97122.97;;;19.65;63.26
26865;BME280;40618;51.166;10.322;2022-08-19T07:55:44;97131.44;;;19.68;63.11
26865;BME280;40618;51.166;10.322;2022-08-19T07:58:22;97125.38;;;19.68;62.99
26865;BME280;40618;51.166;10.322;2022-08-19T08:01:02;97133.66;;;19.74;62.86
26865;BME280;40618;51.166;10.322;2022-08-19T08:03:41;97141.28;;;19.77;62.68
26865;BME280;40618;51.166;10.322;2022-08-19T08:06:38;97141.13;;;19.81;63.18
26865;BME280;40618;51.166;10.322;2022-08-19T08:09:38;97142.16;;;19.78;62.74
26865;BME280;40618;51.166;10.322;2022-08-19T08:12:21;97150.47;;;19.72;62.42
26865;BME280;40618;51.166;10.322;2022-08-19T08:15:13;97155.09;;;19.68;62.87
26865;BME280;40618;51.166;10.322;2022-08-19T08:17:55;97155.09;;;19.68;62.66
26865;BME280;40618;51.166;10.322;2022-08-19T08:20:34;97161.44;;;19.66;62.59
26865;BME280;40618;51.166;10.322;2022-08-19T08:23:13;97163.09;;;19.67;62.51
26865;BME280;40618;51.166;10.322;2022-08-19T08:26:02;97168.22;;;19.68;62.76
26865;BME280;40618;51.166;10.322;2022-08-19T08:28:41;97174.94;;;19.72;62.68
26865;BME280;40618;51.166;10.322;2022-08-19T08:31:25;97178.41;;;19.73;62.42
26865;BME280;40618;51.166;10.322;2022-08-19T08:34:04;97176.03;;;19.70;62.50
26865;BME280;40618;51.166;10.322;2022-08-19T08:36:44;97175.78;;;19.73;62.46
26865;BME280;40618;51.166;10.322;2022-08-19T08:39:23;97184.50;;;19.73;62.29
26865;BME280;40618;51.166;10.322;2022-08-19T08:45:03;97181.16;;;19.71;62.26
26865;BME280;40618;51.166;10.322;2022-08-19T08:47:53;97176.84;;;19.70;62.50
26865;BME280;40618;51.166;10.322;2022-08-19T08:50:41;97186.28;;;19.73;62.45
26865;BME280;40618;51.166;10.322;2022-08-19T08:53:23;97187.13;;;19.73;62.52
26865;BME280;40618;51.166;10.322;2022-08-19T08:56:08;97186.41;;;19.71;62.32
26865;BME280;40618;51.166;10.322;2022-08-19T08:59:07;97192.16;;;19.76;62.42
26865;BME280;40618;51.166;10.322;2022-08-19T09:01:58;97192.69;;;19.82;62.29
26865;BME280;40618;51.166;10.322;2022-08-19T09:04:37;97195.53;;;19.78;62.02
26865;BME280;40618;51.166;10.322;2022-08-19T09:10:31;97191.03;;;19.81;62.03
26865;BME280;40618;51.166;10.322;2022-08-19T09:16:35;97176.91;;;19.94;61.61
26865;BME280;40618;51.166;10.322;2022-08-19T09:19:15;97190.31;;;20.03;61.61
26865;BME280;40618;51.166;10.322;2022-08-19T09:21:58;97187.22;;;20.09;61.44
26865;BME280;40618;51.166;10.322;2022-08-19T09:24:37;97195.63;;;20.14;61.31
26865;BME280;40618;51.166;10.322;2022-08-19T09:27:16;97192.28;;;20.12;61.48
26865;BME280;40618;51.166;10.322;2022-08-19T09:29:55;97191.09;;;20.16;61.46
26865;BME280;40618;51.166;10.322;2022-08-19T09:32:33;97200.94;;;20.25;61.27
26865;BME280;40618;51.166;10.322;2022-08-19T09:35:12;97199.03;;;20.27;61.15
26865;BME280;40618;51.166;10.322;2022-08-19T09:37:51;97205.13;;;20.28;61.04
26865;BME280;40618;51.166;10.322;2022-08-19T09:40:34;97199.59;;;20.20;60.80
26865;BME280;40618;51.166;10.322;2022-08-19T09:43:14;97201.81;;;20.13;60.88
26865;BME280;40618;51.166;10.322;2022-08-19T09:46:09;97199.94;;;20.15;61.06
26865;BME280;40618;51.166;10.322;2022-08-19T09:48:51;97202.34;;;20.18;60.66
26865;BME280;40618;51.166;10.322;2022-08-19T09:51:29;97194.97;;;20.23;60.86
26865;BME280;40618;51.166;10.322;2022-08-19T09:54:08;97189.22;;;20.29;61.05
26865;BME280;40618;51.166;10.322;2022-08-19T09:56:48;97179.72;;;20.40;60.91
26865;BME280;40618;51.166;10.322;2022-08-19T09:59:26;97178.41;;;20.45;60.86
26865;BME280;40618;51.166;10.322;2022-08-19T10:02:09;97180.09;;;20.46;60.62
26865;BME280;40618;51.166;10.322;2022-08-19T10:04:48;97183.44;;;20.49;60.37
26865;BME280;40618;51.166;10.322;2022-08-19T10:07:45;97181.78;;;20.48;60.33
26865;BME280;40618;51.166;10.322;2022-08-19T10:10:24;97183.56;;;20.47;60.36
26865;BME280;40618;51.166;10.322;2022-08-19T10:13:03;97190.28;;;20.51;60.34
26865;BME280;40618;51.166;10.322;2022-08-19T10:15:42;97188.81;;;20.47;60.18
26865;BME280;40618;51.166;10.322;2022-08-19T10:18:25;97181.28;;;20.42;60.20
26865;BME280;40618;51.166;10.322;2022-08-19T10:21:13;97178.91;;;20.51;60.65
26865;BME280;40618;51.166;10.322;2022-08-19T10:23:58;97177.38;;;20.59;60.23
26865;BME280;40618;51.166;10.322;2022-08-19T10:26:41;97175.47;;;20.61;60.41
26865;BME280;40618;51.166;10.322;2022-08-19T10:29:23;97186.47;;;20.67;59.98
26865;BME280;40618;51.166;10.322;2022-08-19T10:32:09;97180.06;;;20.71;60.02
26865;BME280;40618;51.166;10.322;2022-08-19T10:34:50;97178.16;;;20.73;59.90
26865;BME280;40618;51.166;10.322;2022-08-19T10:37:35;97172.66;;;20.76;60.10
26865;BME280;40618;51.166;10.322;2022-08-19T10:40:33;97166.72;;;20.85;59.90
26865;BME280;40618;51.166;10.322;2022-08-19T10:43:12;97163.63;;;20.91;59.82
26865;BME280;40618;51.166;10.322;2022-08-19T10:45:54;97160.63;;;20.96;59.84
26865;BME280;40618;51.166;10.322;2022-08-19T10:48:34;97153.22;;;21.01;59.64
26865;BME280;40618;51.166;10.322;2022-08-19T10:51:13;97160.50;;;21.09;59.62
26865;BME280;40618;51.166;10.322;2022-08-19T10:54:10;97155.25;;;21.20;59.70
26865;BME280;40618;51.166;10.322;2022-08-19T10:56:49;97155.38;;;21.30;59.58
26865;BME280;40618;51.166;10.322;2022-08-19T10:59:29;97161.13;;;21.35;59.36
26865;BME280;40618;51.166;10.322;2022-08-19T11:02:12;97155.34;;;21.41;59.57
26865;BME280;40618;51.166;10.322;2022-08-19T11:04:51;97150.81;;;21.55;59.23
26865;BME280;40618;51.166;10.322;2022-08-19T11:07:30;97156.16;;;21.76;59.53
26865;BME280;40618;51.166;10.322;2022-08-19T11:10:09;97147.84;;;21.92;58.89
26865;BME280;40618;51.166;10.322;2022-08-19T11:12:57;97147.84;;;22.24;59.12
26865;BME280;40618;51.166;10.322;2022-08-19T11:15:35;97147.94;;;22.55;58.74
26865;BME280;40618;51.166;10.322;2022-08-19T11:18:14;97145.59;;;22.73;58.46
26865;BME280;40618;51.166;10.322;2022-08-19T11:20:54;97138.63;;;22.72;58.07
26865;BME280;40618;51.166;10.322;2022-08-19T11:23:32;97146.13;;;22.77;58.04
26865;BME280;40618;51.166;10.322;2022-08-19T11:26:10;97147.22;;;22.74;57.61
26865;BME280;40618;51.166;10.322;2022-08-19T11:28:49;97150.31;;;22.79;57.33
26865;BME280;40618;51.166;10.322;2022-08-19T11:31:33;97153.22;;;22.76;57.53
26865;BME280;40618;51.166;10.322;2022-08-19T11:34:18;97155.09;;;22.64;57.74
26865;BME280;40618;51.166;10.322;2022-08-19T11:36:58;97150.97;;;22.72;57.71
26865;BME280;40618;51.166;10.322;2022-08-19T11:39:37;97151.56;;;22.75;57.24
26865;BME280;40618;51.166;10.322;2022-08-19T11:42:17;97138.94;;;22.79;57.00
26865;BME280;40618;51.166;10.322;2022-08-19T11:45:14;97150.66;;;22.86;56.99
26865;BME280;40618;51.166;10.322;2022-08-19T11:47:52;97137.72;;;22.83;56.95
26865;BME280;40618;51.166;10.322;2022-08-19T11:50:31;97148.41;;;22.81;56.84
26865;BME280;40618;51.166;10.322;2022-08-19T11:53:09;97146.59;;;22.82;56.40
26865;BME280;40618;51.166;10.322;2022-08-19T11:55:47;97148.28;;;22.83;56.95
26865;BME280;40618;51.166;10.322;2022-08-19T11:58:26;97137.31;;;22.88;56.20
26865;BME280;40618;51.166;10.322;2022-08-19T12:01:08;97144.59;;;22.95;56.20
26865;BME280;40618;51.166;10.322;2022-08-19T12:03:50;97140.72;;;22.99;56.47
26865;BME280;40618;51.166;10.322;2022-08-19T12:06:32;97138.75;;;23.02;56.32
26865;BME280;40618;51.166;10.322;2022-08-19T12:09:11;97135.88;;;23.05;56.17
26865;BME280;40618;51.166;10.322;2022-08-19T12:11:49;97126.59;;;23.10;55.70
26865;BME280;40618;51.166;10.322;2022-08-19T12:14:28;97135.66;;;23.18;55.99
26865;BME280;40618;51.166;10.322;2022-08-19T12:17:08;97133.47;;;23.23;55.54
26865;BME280;40618;51.166;10.322;2022-08-19T12:19:46;97119.84;;;23.27;55.40
26865;BME280;40618;51.166;10.322;2022-08-19T12:22:24;97116.13;;;23.30;55.33
26865;BME280;40618;51.166;10.322;2022-08-19T12:25:04;97121.69;;;23.37;55.56
26865;BME280;40618;51.166;10.322;2022-08-19T12:27:43;97124.06;;;23.40;55.08
26865;BME280;40618;51.166;10.322;2022-08-19T12:30:33;97109.88;;;23.41;54.79
26865;BME280;40618;51.166;10.322;2022-08-19T12:33:14;97112.13;;;23.45;55.09
26865;BME280;40618;51.166;10.322;2022-08-19T12:35:53;97103.81;;;23.50;55.08
26865;BME280;40618;51.166;10.322;2022-08-19T12:38:32;97097.94;;;23.56;54.40
26865;BME280;40618;51.166;10.322;2022-08-19T12:41:12;97104.50;;;23.62;54.53
26865;BME280;40618;51.166;10.322;2022-08-19T12:43:54;97109.09;;;23.70;54.86
26865;BME280;40618;51.166;10.322;2022-08-19T12:46:33;97098.41;;;23.71;54.18
26865;BME280;40618;51.166;10.322;2022-08-19T12:49:11;97097.16;;;23.75;54.47
26865;BME280;40618;51.166;10.322;2022-08-19T12:52:09;97089.34;;;23.74;53.97
26865;BME280;40618;51.166;10.322;2022-08-19T12:54:52;97085.31;;;23.79;53.62
26865;BME280;40618;51.166;10.322;2022-08-19T12:57:34;97085.34;;;23.89;53.81
26865;BME280;40618;51.166;10.322;2022-08-19T13:00:16;97087.16;;;23.89;53.26
26865;BME280;40618;51.166;10.322;2022-08-19T13:02:58;97082.41;;;23.82;53.07
26865;BME280;40618;51.166;10.322;2022-08-19T13:05:37;97087.56;;;23.84;53.16
26865;BME280;40618;51.166;10.322;2022-08-19T13:08:15;97085.88;;;23.83;53.00
26865;BME280;40618;51.166;10.322;2022-08-19T13:10:54;97085.88;;;23.83;52.91
26865;BME280;40618;51.166;10.322;2022-08-19T13:13:32;97085.34;;;23.89;52.96
26865;BME280;40618;51.166;10.322;2022-08-19T13:16:15;97080.19;;;23.97;53.22
26865;BME280;40618;51.166;10.322;2022-08-19T13:18:56;97079.38;;;24.07;52.69
26865;BME280;40618;51.166;10.322;2022-08-19T13:21:34;97076.47;;;24.10;52.62
26865;BME280;40618;51.166;10.322;2022-08-19T13:24:12;97079.13;;;24.10;52.53
26865;BME280;40618;51.166;10.322;2022-08-19T13:26:51;97083.97;;;24.05;52.63
26865;BME280;40618;51.166;10.322;2022-08-19T13:29:29;97088.56;;;24.03;52.14
26865;BME280;40618;51.166;10.322;2022-08-19T13:32:26;97079.94;;;24.01;52.16
26865;BME280;40618;51.166;10.322;2022-08-19T13:35:25;97085.78;;;24.04;51.97
26865;BME280;40618;51.166;10.322;2022-08-19T13:38:03;97100.28;;;24.10;51.93
26865;BME280;40618;51.166;10.322;2022-08-19T13:40:47;97093.16;;;24.10;51.77
26865;BME280;40618;51.166;10.322;2022-08-19T13:43:27;97092.19;;;24.11;51.70
26865;BME280;40618;51.166;10.322;2022-08-19T13:46:10;97088.00;;;24.19;51.49
26865;BME280;40618;51.166;10.322;2022-08-19T13:48:51;97096.75;;;24.29;51.31
26865;BME280;40618;51.166;10.322;2022-08-19T13:51:29;97095.66;;;24.41;50.98
26865;BME280;40618;51.166;10.322;2022-08-19T13:54:08;97091.84;;;24.44;50.79
26865;BME280;40618;51.166;10.322;2022-08-19T13:56:47;97097.16;;;24.54;50.55
26865;BME280;40618;51.166;10.322;2022-08-19T13:59:26;97096.31;;;24.63;50.87
26865;BME280;40618;51.166;10.322;2022-08-19T14:02:04;97103.38;;;24.72;50.92
26865;BME280;40618;51.166;10.322;2022-08-19T14:04:42;97104.63;;;24.78;50.63
26865;BME280;40618;51.166;10.322;2022-08-19T14:07:21;97115.63;;;24.83;50.15
26865;BME280;40618;51.166;10.322;2022-08-19T14:10:00;97112.00;;;24.84;50.38
26865;BME280;40618;51.166;10.322;2022-08-19T14:12:39;97109.66;;;24.81;49.97
26865;BME280;40618;51.166;10.322;2022-08-19T14:15:18;97108.66;;;24.82;49.80
26865;BME280;40618;51.166;10.322;2022-08-19T14:17:56;97111.28;;;24.82;49.90